Главная страница
METAR-TAF:

METAR-TAF

Аэропорты :

Пуэнт-Нуар, Конго

широта: 04-49S, долгота: 011-54E, высота над уровнем моря: 17 м

Текущие метеонаблюдения

Эта сводка был подготовлена 46 минут назад, в 22:00 UTC
Ветер 3 Узел от юго-юго-восточный
Температура 26°C
Влажность 94%
Давление 1014 hPa
Видимость: 7000 м
Отдельные облака на высоте 1000 фута
Рассеянная облачность на высоте 2000 фута

METAR: FCPP 162200Z 15003KT 7000 SCT010 BKN020 26/25 Q1014 NOSIG

Время: 23:46 (22:46 UTC)

Прогноз

Эта сводка был подготовлена 5 часа и 46 минут назад, в 17:00 UTC
Прогноз действительный с 16-го 18 UTC до 17-го 18 UTC
Ветер 7 Узел от южный
Видимость: 9000 м
Отдельные облака на высоте 1200 фута
Рассеянная облачность на высоте 2300 фута
Вероятность 30%
С 17-го 14 UTC до 17-го 18 UTC
Отдельные облака на высоте 1400 фута
Отдельные облака на высоте 2300 фута
небольшая облачность на высоте 2600 фута, Кучево-дождевые.

TAF: FCPP 161700Z 1618/1718 18007KT 9000 SCT012 BKN023 PROB30 1714/1718 SCT014 SCT023 FEW026CB

Метеонаблюдения и прогнозы для более 4000 аэропортов (сводки METAR и TAF).

Имеющиеся станции представлены на карте желтыми и красными точками.

Чтобы увидеть название станции, наведите на нее мышь.

Затем щелкните, чтобы увидеть метеонаблюдения и метеопрогнозы.

Управление картой: чтобы увеличить масштаб, щелкните зеленые кнопки с черным крестиком; чтобы уменьшить масштаб, щелкните зеленую кнопку с тире; для просмотра соседних карт щелкайте зеленые стрелки.


METAR-TAF: